sensor_id;sensor_type;location;lat;lon;timestamp;temperature;humidity
983;DHT22;480;48.124;11.578;2022-09-23T00:00:39;8.60;99.90
983;DHT22;480;48.124;11.578;2022-09-23T00:03:06;8.40;99.90
983;DHT22;480;48.124;11.578;2022-09-23T00:05:34;8.30;99.90
983;DHT22;480;48.124;11.578;2022-09-23T00:08:03;8.10;99.90
983;DHT22;480;48.124;11.578;2022-09-23T00:10:31;8.10;99.90
983;DHT22;480;48.124;11.578;2022-09-23T00:13:00;8.20;99.90
983;DHT22;480;48.124;11.578;2022-09-23T00:15:29;8.40;99.90
983;DHT22;480;48.124;11.578;2022-09-23T00:17:56;8.50;99.90
983;DHT22;480;48.124;11.578;2022-09-23T00:20:23;8.70;99.90
983;DHT22;480;48.124;11.578;2022-09-23T00:22:53;8.80;99.90
983;DHT22;480;48.124;11.578;2022-09-23T00:25:22;8.90;99.90
983;DHT22;480;48.124;11.578;2022-09-23T00:27:51;9.00;99.90
983;DHT22;480;48.124;11.578;2022-09-23T00:30:18;9.10;99.90
983;DHT22;480;48.124;11.578;2022-09-23T00:32:46;9.10;99.90
983;DHT22;480;48.124;11.578;2022-09-23T00:35:14;9.10;99.90
983;DHT22;480;48.124;11.578;2022-09-23T00:37:41;9.20;99.90
983;DHT22;480;48.124;11.578;2022-09-23T00:40:09;9.20;99.90
983;DHT22;480;48.124;11.578;2022-09-23T00:42:36;9.20;99.90
983;DHT22;480;48.124;11.578;2022-09-23T00:45:08;9.20;99.90
983;DHT22;480;48.124;11.578;2022-09-23T00:47:40;9.20;99.90
983;DHT22;480;48.124;11.578;2022-09-23T00:50:16;9.20;99.90
983;DHT22;480;48.124;11.578;2022-09-23T00:52:45;9.20;99.90
983;DHT22;480;48.124;11.578;2022-09-23T00:55:17;9.30;99.90
983;DHT22;480;48.124;11.578;2022-09-23T00:57:45;9.20;99.90
983;DHT22;480;48.124;11.578;2022-09-23T01:00:13;9.20;99.90
983;DHT22;480;48.124;11.578;2022-09-23T01:02:42;9.20;99.90
983;DHT22;480;48.124;11.578;2022-09-23T01:05:11;9.30;99.90
983;DHT22;480;48.124;11.578;2022-09-23T01:07:39;9.20;99.90
983;DHT22;480;48.124;11.578;2022-09-23T01:10:07;9.20;99.90
983;DHT22;480;48.124;11.578;2022-09-23T01:12:54;9.20;99.90
983;DHT22;480;48.124;11.578;2022-09-23T01:15:30;9.20;99.90
983;DHT22;480;48.124;11.578;2022-09-23T01:18:06;9.20;99.90
983;DHT22;480;48.124;11.578;2022-09-23T01:20:57;9.10;99.90
983;DHT22;480;48.124;11.578;2022-09-23T01:24:13;9.10;99.90
983;DHT22;480;48.124;11.578;2022-09-23T01:26:54;9.10;99.90
983;DHT22;480;48.124;11.578;2022-09-23T01:29:37;9.10;99.90
983;DHT22;480;48.124;11.578;2022-09-23T01:32:15;9.00;99.90
983;DHT22;480;48.124;11.578;2022-09-23T01:34:47;9.00;99.90
983;DHT22;480;48.124;11.578;2022-09-23T01:37:22;9.00;99.90
983;DHT22;480;48.124;11.578;2022-09-23T01:39:58;9.00;99.90
983;DHT22;480;48.124;11.578;2022-09-23T01:42:32;8.90;99.90
983;DHT22;480;48.124;11.578;2022-09-23T01:45:07;8.90;99.90
983;DHT22;480;48.124;11.578;2022-09-23T01:47:41;8.90;99.90
983;DHT22;480;48.124;11.578;2022-09-23T01:50:15;8.90;99.90
983;DHT22;480;48.124;11.578;2022-09-23T01:53:03;8.90;99.90
983;DHT22;480;48.124;11.578;2022-09-23T01:55:35;8.90;99.90
983;DHT22;480;48.124;11.578;2022-09-23T01:58:06;8.90;99.90
983;DHT22;480;48.124;11.578;2022-09-23T02:00:39;8.90;99.90
983;DHT22;480;48.124;11.578;2022-09-23T02:03:14;8.80;99.90
983;DHT22;480;48.124;11.578;2022-09-23T02:05:44;8.70;99.90
983;DHT22;480;48.124;11.578;2022-09-23T02:08:19;8.70;99.90
983;DHT22;480;48.124;11.578;2022-09-23T02:10:50;8.50;99.90
983;DHT22;480;48.124;11.578;2022-09-23T02:13:24;8.20;99.90
983;DHT22;480;48.124;11.578;2022-09-23T02:15:56;8.00;99.90
983;DHT22;480;48.124;11.578;2022-09-23T02:18:32;7.60;99.90
983;DHT22;480;48.124;11.578;2022-09-23T02:21:08;7.60;99.90
983;DHT22;480;48.124;11.578;2022-09-23T02:23:39;7.30;99.90
983;DHT22;480;48.124;11.578;2022-09-23T02:26:15;7.00;99.90
983;DHT22;480;48.124;11.578;2022-09-23T02:28:50;7.00;99.90
983;DHT22;480;48.124;11.578;2022-09-23T02:31:24;7.00;99.90
983;DHT22;480;48.124;11.578;2022-09-23T02:33:59;7.00;99.90
983;DHT22;480;48.124;11.578;2022-09-23T02:36:31;7.00;99.90
983;DHT22;480;48.124;11.578;2022-09-23T02:39:02;7.00;99.90
983;DHT22;480;48.124;11.578;2022-09-23T02:41:34;6.80;99.90
983;DHT22;480;48.124;11.578;2022-09-23T02:44:05;6.70;99.90
983;DHT22;480;48.124;11.578;2022-09-23T02:46:34;6.50;99.90
983;DHT22;480;48.124;11.578;2022-09-23T02:49:08;6.40;99.90
983;DHT22;480;48.124;11.578;2022-09-23T02:51:36;6.30;99.90
983;DHT22;480;48.124;11.578;2022-09-23T02:54:05;6.20;99.90
983;DHT22;480;48.124;11.578;2022-09-23T02:56:35;6.30;99.90
983;DHT22;480;48.124;11.578;2022-09-23T02:59:04;6.30;99.90
983;DHT22;480;48.124;11.578;2022-09-23T03:01:38;6.40;99.90
983;DHT22;480;48.124;11.578;2022-09-23T03:04:16;6.70;99.90
983;DHT22;480;48.124;11.578;2022-09-23T03:06:52;6.90;99.90
983;DHT22;480;48.124;11.578;2022-09-23T03:09:25;6.70;99.90
983;DHT22;480;48.124;11.578;2022-09-23T03:12:01;7.00;99.90
983;DHT22;480;48.124;11.578;2022-09-23T03:14:38;7.10;99.90
983;DHT22;480;48.124;11.578;2022-09-23T03:17:13;7.00;99.90
983;DHT22;480;48.124;11.578;2022-09-23T03:19:48;7.00;99.90
983;DHT22;480;48.124;11.578;2022-09-23T03:22:20;7.00;99.90
983;DHT22;480;48.124;11.578;2022-09-23T03:24:50;7.10;99.90
983;DHT22;480;48.124;11.578;2022-09-23T03:27:22;6.80;99.90
983;DHT22;480;48.124;11.578;2022-09-23T03:29:52;6.60;99.90
983;DHT22;480;48.124;11.578;2022-09-23T03:32:22;6.80;99.90
983;DHT22;480;48.124;11.578;2022-09-23T03:34:55;6.80;99.90
983;DHT22;480;48.124;11.578;2022-09-23T03:37:26;6.70;99.90
983;DHT22;480;48.124;11.578;2022-09-23T03:40:00;6.90;99.90
983;DHT22;480;48.124;11.578;2022-09-23T03:42:31;7.00;99.90
983;DHT22;480;48.124;11.578;2022-09-23T03:44:59;7.10;99.90
983;DHT22;480;48.124;11.578;2022-09-23T03:47:27;6.90;99.90
983;DHT22;480;48.124;11.578;2022-09-23T03:49:57;6.80;99.90
983;DHT22;480;48.124;11.578;2022-09-23T03:52:25;6.70;99.90
983;DHT22;480;48.124;11.578;2022-09-23T03:54:52;6.60;99.90
983;DHT22;480;48.124;11.578;2022-09-23T03:57:20;6.60;99.90
983;DHT22;480;48.124;11.578;2022-09-23T03:59:47;6.40;99.90
983;DHT22;480;48.124;11.578;2022-09-23T04:02:15;6.40;99.90
983;DHT22;480;48.124;11.578;2022-09-23T04:04:43;6.60;99.90
983;DHT22;480;48.124;11.578;2022-09-23T04:07:12;6.80;99.90
983;DHT22;480;48.124;11.578;2022-09-23T04:09:39;6.90;99.90
983;DHT22;480;48.124;11.578;2022-09-23T04:12:07;7.00;99.90
983;DHT22;480;48.124;11.578;2022-09-23T04:14:37;7.10;99.90
983;DHT22;480;48.124;11.578;2022-09-23T04:17:04;7.10;99.90
983;DHT22;480;48.124;11.578;2022-09-23T04:19:31;7.20;99.90
983;DHT22;480;48.124;11.578;2022-09-23T04:21:59;7.30;99.90
983;DHT22;480;48.124;11.578;2022-09-23T04:24:28;7.30;99.90
983;DHT22;480;48.124;11.578;2022-09-23T04:26:55;7.40;99.90
983;DHT22;480;48.124;11.578;2022-09-23T04:29:24;7.40;99.90
983;DHT22;480;48.124;11.578;2022-09-23T04:31:52;7.40;99.90
983;DHT22;480;48.124;11.578;2022-09-23T04:34:20;7.40;99.90
983;DHT22;480;48.124;11.578;2022-09-23T04:36:48;7.50;99.90
983;DHT22;480;48.124;11.578;2022-09-23T04:39:16;7.50;99.90
983;DHT22;480;48.124;11.578;2022-09-23T04:41:45;7.50;99.90
983;DHT22;480;48.124;11.578;2022-09-23T04:44:13;7.50;99.90
983;DHT22;480;48.124;11.578;2022-09-23T04:46:41;7.50;99.90
983;DHT22;480;48.124;11.578;2022-09-23T04:49:13;7.40;99.90
983;DHT22;480;48.124;11.578;2022-09-23T04:51:40;7.50;99.90
983;DHT22;480;48.124;11.578;2022-09-23T04:54:08;7.50;99.90
983;DHT22;480;48.124;11.578;2022-09-23T04:56:36;7.20;99.90
983;DHT22;480;48.124;11.578;2022-09-23T04:59:06;7.20;99.90
983;DHT22;480;48.124;11.578;2022-09-23T05:01:34;6.70;99.90
983;DHT22;480;48.124;11.578;2022-09-23T05:04:04;6.60;99.90
983;DHT22;480;48.124;11.578;2022-09-23T05:06:33;6.70;99.90
983;DHT22;480;48.124;11.578;2022-09-23T05:09:03;6.80;99.90
983;DHT22;480;48.124;11.578;2022-09-23T05:11:31;6.90;99.90
983;DHT22;480;48.124;11.578;2022-09-23T05:13:59;7.00;99.90
983;DHT22;480;48.124;11.578;2022-09-23T05:16:28;7.00;99.90
983;DHT22;480;48.124;11.578;2022-09-23T05:18:55;7.00;99.90
983;DHT22;480;48.124;11.578;2022-09-23T05:21:26;7.10;99.90
983;DHT22;480;48.124;11.578;2022-09-23T05:23:56;7.20;99.90
983;DHT22;480;48.124;11.578;2022-09-23T05:26:28;7.30;99.90
983;DHT22;480;48.124;11.578;2022-09-23T05:28:56;7.30;99.90
983;DHT22;480;48.124;11.578;2022-09-23T05:31:27;7.30;99.90
983;DHT22;480;48.124;11.578;2022-09-23T05:33:57;7.30;99.90
983;DHT22;480;48.124;11.578;2022-09-23T05:36:26;7.20;99.90
983;DHT22;480;48.124;11.578;2022-09-23T05:38:54;7.00;99.90
983;DHT22;480;48.124;11.578;2022-09-23T05:41:25;6.80;99.90
983;DHT22;480;48.124;11.578;2022-09-23T05:43:53;6.60;99.90
983;DHT22;480;48.124;11.578;2022-09-23T05:46:22;6.60;99.90
983;DHT22;480;48.124;11.578;2022-09-23T05:48:52;6.40;99.90
983;DHT22;480;48.124;11.578;2022-09-23T05:51:21;6.70;99.90
983;DHT22;480;48.124;11.578;2022-09-23T05:53:50;6.80;99.90
983;DHT22;480;48.124;11.578;2022-09-23T05:56:19;7.00;99.90
983;DHT22;480;48.124;11.578;2022-09-23T05:58:49;7.10;99.90
983;DHT22;480;48.124;11.578;2022-09-23T06:01:18;7.30;99.90
983;DHT22;480;48.124;11.578;2022-09-23T06:03:46;7.40;99.90
983;DHT22;480;48.124;11.578;2022-09-23T06:06:17;7.50;99.90
983;DHT22;480;48.124;11.578;2022-09-23T06:08:45;7.60;99.90
983;DHT22;480;48.124;11.578;2022-09-23T06:11:14;7.60;99.90
983;DHT22;480;48.124;11.578;2022-09-23T06:13:41;7.60;99.90
983;DHT22;480;48.124;11.578;2022-09-23T06:16:10;7.70;99.90
983;DHT22;480;48.124;11.578;2022-09-23T06:18:39;7.60;99.90
983;DHT22;480;48.124;11.578;2022-09-23T06:21:07;7.70;99.90
983;DHT22;480;48.124;11.578;2022-09-23T06:23:36;7.70;99.90
983;DHT22;480;48.124;11.578;2022-09-23T06:26:05;7.90;99.90
983;DHT22;480;48.124;11.578;2022-09-23T06:28:34;7.90;99.90
983;DHT22;480;48.124;11.578;2022-09-23T06:31:03;8.00;99.90
983;DHT22;480;48.124;11.578;2022-09-23T06:33:33;8.20;99.90
983;DHT22;480;48.124;11.578;2022-09-23T06:36:02;8.40;99.90
983;DHT22;480;48.124;11.578;2022-09-23T06:38:30;8.30;99.90
983;DHT22;480;48.124;11.578;2022-09-23T06:41:01;8.20;99.90
983;DHT22;480;48.124;11.578;2022-09-23T06:43:30;8.20;99.90
983;DHT22;480;48.124;11.578;2022-09-23T06:46:00;8.30;99.90
983;DHT22;480;48.124;11.578;2022-09-23T06:48:28;8.20;99.90
983;DHT22;480;48.124;11.578;2022-09-23T06:51:00;8.10;99.90
983;DHT22;480;48.124;11.578;2022-09-23T06:53:29;8.30;99.90
983;DHT22;480;48.124;11.578;2022-09-23T06:55:57;8.50;99.90
983;DHT22;480;48.124;11.578;2022-09-23T06:58:28;8.60;99.90
983;DHT22;480;48.124;11.578;2022-09-23T07:01:00;8.70;99.90
983;DHT22;480;48.124;11.578;2022-09-23T07:03:27;8.90;99.90
983;DHT22;480;48.124;11.578;2022-09-23T07:05:56;9.00;99.90
983;DHT22;480;48.124;11.578;2022-09-23T07:08:24;9.20;99.90
983;DHT22;480;48.124;11.578;2022-09-23T07:10:51;9.30;99.90
983;DHT22;480;48.124;11.578;2022-09-23T07:13:19;9.50;99.90
983;DHT22;480;48.124;11.578;2022-09-23T07:15:52;9.70;99.90
983;DHT22;480;48.124;11.578;2022-09-23T07:18:24;9.80;99.90
983;DHT22;480;48.124;11.578;2022-09-23T07:21:07;9.70;99.90
983;DHT22;480;48.124;11.578;2022-09-23T07:23:34;9.50;99.90
983;DHT22;480;48.124;11.578;2022-09-23T07:26:02;9.70;99.90
983;DHT22;480;48.124;11.578;2022-09-23T07:28:32;9.60;99.90
983;DHT22;480;48.124;11.578;2022-09-23T07:31:04;9.70;99.90
983;DHT22;480;48.124;11.578;2022-09-23T07:33:33;9.90;99.90
983;DHT22;480;48.124;11.578;2022-09-23T07:36:05;10.10;99.90
983;DHT22;480;48.124;11.578;2022-09-23T07:38:34;10.20;99.90
983;DHT22;480;48.124;11.578;2022-09-23T07:41:02;10.50;99.90
983;DHT22;480;48.124;11.578;2022-09-23T07:43:30;10.70;99.90
983;DHT22;480;48.124;11.578;2022-09-23T07:48:40;11.10;99.90
983;DHT22;480;48.124;11.578;2022-09-23T07:51:18;11.20;99.90
983;DHT22;480;48.124;11.578;2022-09-23T07:54:12;11.20;99.90
983;DHT22;480;48.124;11.578;2022-09-23T07:57:10;11.50;99.90
983;DHT22;480;48.124;11.578;2022-09-23T07:59:41;11.50;99.90
983;DHT22;480;48.124;11.578;2022-09-23T08:02:14;11.60;99.90
983;DHT22;480;48.124;11.578;2022-09-23T08:05:05;11.60;99.90
983;DHT22;480;48.124;11.578;2022-09-23T08:07:33;11.80;99.90
983;DHT22;480;48.124;11.578;2022-09-23T08:10:14;11.80;99.90
983;DHT22;480;48.124;11.578;2022-09-23T08:12:46;11.80;99.90
983;DHT22;480;48.124;11.578;2022-09-23T08:15:14;11.90;99.90
983;DHT22;480;48.124;11.578;2022-09-23T08:17:42;12.10;99.90
983;DHT22;480;48.124;11.578;2022-09-23T08:20:11;12.30;99.90
983;DHT22;480;48.124;11.578;2022-09-23T08:22:59;12.60;99.90
983;DHT22;480;48.124;11.578;2022-09-23T08:25:26;12.70;99.90
983;DHT22;480;48.124;11.578;2022-09-23T08:27:54;12.70;99.90
983;DHT22;480;48.124;11.578;2022-09-23T08:30:24;12.80;99.90
983;DHT22;480;48.124;11.578;2022-09-23T08:32:59;12.90;99.90
983;DHT22;480;48.124;11.578;2022-09-23T08:35:46;12.90;99.90
983;DHT22;480;48.124;11.578;2022-09-23T08:38:15;12.90;99.90
983;DHT22;480;48.124;11.578;2022-09-23T08:40:49;13.00;99.90
983;DHT22;480;48.124;11.578;2022-09-23T08:43:22;13.20;99.90
983;DHT22;480;48.124;11.578;2022-09-23T08:45:52;13.50;99.90
983;DHT22;480;48.124;11.578;2022-09-23T08:48:26;13.50;99.90
983;DHT22;480;48.124;11.578;2022-09-23T08:51:01;13.50;99.90
983;DHT22;480;48.124;11.578;2022-09-23T08:53:33;13.60;99.90
983;DHT22;480;48.124;11.578;2022-09-23T08:56:04;13.60;99.90
983;DHT22;480;48.124;11.578;2022-09-23T08:58:46;13.80;99.90
983;DHT22;480;48.124;11.578;2022-09-23T09:01:22;14.10;99.90
983;DHT22;480;48.124;11.578;2022-09-23T09:03:53;14.20;99.90
983;DHT22;480;48.124;11.578;2022-09-23T09:06:28;14.20;99.90
983;DHT22;480;48.124;11.578;2022-09-23T09:09:00;14.20;99.90
983;DHT22;480;48.124;11.578;2022-09-23T09:11:34;14.30;99.90
983;DHT22;480;48.124;11.578;2022-09-23T09:14:16;14.40;99.90
983;DHT22;480;48.124;11.578;2022-09-23T09:16:55;14.50;99.90
983;DHT22;480;48.124;11.578;2022-09-23T09:19:37;14.70;99.90
983;DHT22;480;48.124;11.578;2022-09-23T09:22:14;14.60;99.90
983;DHT22;480;48.124;11.578;2022-09-23T09:24:48;14.70;99.90
983;DHT22;480;48.124;11.578;2022-09-23T09:27:15;15.00;99.90
983;DHT22;480;48.124;11.578;2022-09-23T09:29:45;15.00;99.90
983;DHT22;480;48.124;11.578;2022-09-23T09:32:21;15.00;99.90
983;DHT22;480;48.124;11.578;2022-09-23T09:34:56;15.10;99.90
983;DHT22;480;48.124;11.578;2022-09-23T09:37:33;15.30;99.90
983;DHT22;480;48.124;11.578;2022-09-23T09:40:12;15.40;99.90
983;DHT22;480;48.124;11.578;2022-09-23T09:42:41;15.40;99.90
983;DHT22;480;48.124;11.578;2022-09-23T09:45:16;15.40;99.90
983;DHT22;480;48.124;11.578;2022-09-23T09:47:49;15.60;99.90
983;DHT22;480;48.124;11.578;2022-09-23T09:50:42;15.90;99.90
983;DHT22;480;48.124;11.578;2022-09-23T09:53:28;15.80;99.90
983;DHT22;480;48.124;11.578;2022-09-23T09:56:02;15.70;99.90
983;DHT22;480;48.124;11.578;2022-09-23T09:58:37;15.90;99.90
983;DHT22;480;48.124;11.578;2022-09-23T10:01:23;16.00;99.90
983;DHT22;480;48.124;11.578;2022-09-23T10:04:03;16.10;99.90
983;DHT22;480;48.124;11.578;2022-09-23T10:06:34;16.20;99.90
983;DHT22;480;48.124;11.578;2022-09-23T10:09:08;16.10;99.90
983;DHT22;480;48.124;11.578;2022-09-23T10:11:37;16.20;99.90
983;DHT22;480;48.124;11.578;2022-09-23T10:14:09;16.30;99.90
983;DHT22;480;48.124;11.578;2022-09-23T10:16:37;16.40;99.90
983;DHT22;480;48.124;11.578;2022-09-23T10:19:14;16.40;99.90
983;DHT22;480;48.124;11.578;2022-09-23T10:21:43;16.30;99.90
983;DHT22;480;48.124;11.578;2022-09-23T10:24:21;16.40;99.90
983;DHT22;480;48.124;11.578;2022-09-23T10:26:55;16.40;99.90
983;DHT22;480;48.124;11.578;2022-09-23T10:29:28;16.60;99.90
983;DHT22;480;48.124;11.578;2022-09-23T10:35:12;16.40;99.90
983;DHT22;480;48.124;11.578;2022-09-23T10:37:42;16.60;99.90
983;DHT22;480;48.124;11.578;2022-09-23T10:40:14;16.80;99.90
983;DHT22;480;48.124;11.578;2022-09-23T10:43:27;17.10;99.90
983;DHT22;480;48.124;11.578;2022-09-23T10:46:17;17.40;99.90
983;DHT22;480;48.124;11.578;2022-09-23T10:49:23;17.80;99.90
983;DHT22;480;48.124;11.578;2022-09-23T10:52:01;18.10;99.90
983;DHT22;480;48.124;11.578;2022-09-23T10:54:39;17.90;99.90
983;DHT22;480;48.124;11.578;2022-09-23T10:57:18;17.90;99.90
983;DHT22;480;48.124;11.578;2022-09-23T11:00:19;18.10;99.90
983;DHT22;480;48.124;11.578;2022-09-23T11:05:46;18.00;99.90
983;DHT22;480;48.124;11.578;2022-09-23T11:08:34;18.10;99.90
983;DHT22;480;48.124;11.578;2022-09-23T11:11:15;18.20;99.90
983;DHT22;480;48.124;11.578;2022-09-23T11:14:10;18.40;99.90
983;DHT22;480;48.124;11.578;2022-09-23T11:16:52;18.70;99.90
983;DHT22;480;48.124;11.578;2022-09-23T11:19:38;18.80;99.90
983;DHT22;480;48.124;11.578;2022-09-23T11:22:21;19.10;99.90
983;DHT22;480;48.124;11.578;2022-09-23T11:25:16;19.20;99.90
983;DHT22;480;48.124;11.578;2022-09-23T11:30:57;19.00;99.90
983;DHT22;480;48.124;11.578;2022-09-23T11:33:35;19.00;99.90
983;DHT22;480;48.124;11.578;2022-09-23T11:36:07;19.30;99.90
983;DHT22;480;48.124;11.578;2022-09-23T11:38:40;19.40;99.90
983;DHT22;480;48.124;11.578;2022-09-23T11:41:14;19.50;99.90
983;DHT22;480;48.124;11.578;2022-09-23T11:43:47;19.50;99.90
983;DHT22;480;48.124;11.578;2022-09-23T11:46:25;19.50;99.90
983;DHT22;480;48.124;11.578;2022-09-23T11:48:56;19.70;99.90
983;DHT22;480;48.124;11.578;2022-09-23T11:51:28;19.60;99.90
983;DHT22;480;48.124;11.578;2022-09-23T11:54:01;19.60;99.90
983;DHT22;480;48.124;11.578;2022-09-23T11:56:33;19.90;99.90
983;DHT22;480;48.124;11.578;2022-09-23T11:59:05;20.10;99.90
983;DHT22;480;48.124;11.578;2022-09-23T12:01:38;19.80;99.90
983;DHT22;480;48.124;11.578;2022-09-23T12:04:12;20.10;99.90
983;DHT22;480;48.124;11.578;2022-09-23T12:06:47;20.10;99.90
983;DHT22;480;48.124;11.578;2022-09-23T12:09:21;20.00;99.90
983;DHT22;480;48.124;11.578;2022-09-23T12:11:54;20.00;99.90
983;DHT22;480;48.124;11.578;2022-09-23T12:14:31;20.00;99.90
983;DHT22;480;48.124;11.578;2022-09-23T12:17:30;20.20;99.90
983;DHT22;480;48.124;11.578;2022-09-23T12:20:11;20.00;99.90
983;DHT22;480;48.124;11.578;2022-09-23T12:22:51;19.80;99.90
983;DHT22;480;48.124;11.578;2022-09-23T12:25:41;19.80;99.90
983;DHT22;480;48.124;11.578;2022-09-23T12:28:14;20.00;99.90
983;DHT22;480;48.124;11.578;2022-09-23T12:30:44;20.10;99.90
983;DHT22;480;48.124;11.578;2022-09-23T12:33:20;20.10;99.90
983;DHT22;480;48.124;11.578;2022-09-23T12:35:51;20.40;99.90
983;DHT22;480;48.124;11.578;2022-09-23T12:38:21;20.40;99.90
983;DHT22;480;48.124;11.578;2022-09-23T12:40:52;20.40;99.90
983;DHT22;480;48.124;11.578;2022-09-23T12:43:30;20.50;99.90
983;DHT22;480;48.124;11.578;2022-09-23T12:46:16;20.40;99.90
983;DHT22;480;48.124;11.578;2022-09-23T12:48:57;20.40;99.90
983;DHT22;480;48.124;11.578;2022-09-23T12:51:26;20.40;99.90
983;DHT22;480;48.124;11.578;2022-09-23T12:54:19;20.50;99.90
983;DHT22;480;48.124;11.578;2022-09-23T12:57:01;20.50;99.90
983;DHT22;480;48.124;11.578;2022-09-23T12:59:53;20.50;99.90
983;DHT22;480;48.124;11.578;2022-09-23T13:02:33;20.40;99.90
983;DHT22;480;48.124;11.578;2022-09-23T13:05:23;20.50;99.90
983;DHT22;480;48.124;11.578;2022-09-23T13:08:12;20.60;99.90
983;DHT22;480;48.124;11.578;2022-09-23T13:10:46;21.10;99.90
983;DHT22;480;48.124;11.578;2022-09-23T13:13:19;21.20;99.90
983;DHT22;480;48.124;11.578;2022-09-23T13:15:49;21.60;99.90
983;DHT22;480;48.124;11.578;2022-09-23T13:21:16;21.80;99.90
983;DHT22;480;48.124;11.578;2022-09-23T13:24:17;21.70;99.90
983;DHT22;480;48.124;11.578;2022-09-23T13:26:45;21.90;99.90
983;DHT22;480;48.124;11.578;2022-09-23T13:29:17;21.90;99.90
983;DHT22;480;48.124;11.578;2022-09-23T13:31:46;22.10;99.90
983;DHT22;480;48.124;11.578;2022-09-23T13:34:15;22.10;99.90
983;DHT22;480;48.124;11.578;2022-09-23T13:36:46;22.50;99.90
983;DHT22;480;48.124;11.578;2022-09-23T13:39:14;22.70;99.90
983;DHT22;480;48.124;11.578;2022-09-23T13:41:42;22.80;99.90
983;DHT22;480;48.124;11.578;2022-09-23T13:44:15;22.70;99.90
983;DHT22;480;48.124;11.578;2022-09-23T13:46:46;22.50;99.90
983;DHT22;480;48.124;11.578;2022-09-23T13:49:20;22.20;99.90
983;DHT22;480;48.124;11.578;2022-09-23T13:51:51;21.90;99.90
983;DHT22;480;48.124;11.578;2022-09-23T13:54:26;21.50;99.90
983;DHT22;480;48.124;11.578;2022-09-23T13:56:54;21.60;99.90
983;DHT22;480;48.124;11.578;2022-09-23T13:59:26;21.60;99.90
983;DHT22;480;48.124;11.578;2022-09-23T14:02:04;21.60;99.90
983;DHT22;480;48.124;11.578;2022-09-23T14:04:31;21.70;99.90
983;DHT22;480;48.124;11.578;2022-09-23T14:07:00;21.60;99.90
983;DHT22;480;48.124;11.578;2022-09-23T14:09:28;21.50;99.90
983;DHT22;480;48.124;11.578;2022-09-23T14:11:58;21.30;99.90
983;DHT22;480;48.124;11.578;2022-09-23T14:14:26;21.10;99.90
983;DHT22;480;48.124;11.578;2022-09-23T14:16:53;20.90;99.90
983;DHT22;480;48.124;11.578;2022-09-23T14:19:22;20.80;99.90
983;DHT22;480;48.124;11.578;2022-09-23T14:21:50;20.60;99.90
983;DHT22;480;48.124;11.578;2022-09-23T14:24:20;20.60;99.90
983;DHT22;480;48.124;11.578;2022-09-23T14:26:50;20.40;99.90
983;DHT22;480;48.124;11.578;2022-09-23T14:29:21;20.40;99.90
983;DHT22;480;48.124;11.578;2022-09-23T14:31:52;20.40;99.90
983;DHT22;480;48.124;11.578;2022-09-23T14:34:43;20.30;99.90
983;DHT22;480;48.124;11.578;2022-09-23T14:37:19;20.30;99.90
983;DHT22;480;48.124;11.578;2022-09-23T14:40:11;20.30;99.90
983;DHT22;480;48.124;11.578;2022-09-23T14:42:41;20.40;99.90
983;DHT22;480;48.124;11.578;2022-09-23T14:45:13;20.40;99.90
983;DHT22;480;48.124;11.578;2022-09-23T14:47:43;20.30;99.90
983;DHT22;480;48.124;11.578;2022-09-23T14:50:15;20.50;99.90
983;DHT22;480;48.124;11.578;2022-09-23T14:53:01;20.30;99.90
983;DHT22;480;48.124;11.578;2022-09-23T14:55:30;20.20;99.90
983;DHT22;480;48.124;11.578;2022-09-23T14:58:04;20.30;99.90
983;DHT22;480;48.124;11.578;2022-09-23T15:00:37;20.40;99.90
983;DHT22;480;48.124;11.578;2022-09-23T15:03:12;20.40;99.90
983;DHT22;480;48.124;11.578;2022-09-23T15:05:42;20.60;99.90
983;DHT22;480;48.124;11.578;2022-09-23T15:08:23;20.40;99.90
983;DHT22;480;48.124;11.578;2022-09-23T15:10:53;20.20;99.90
983;DHT22;480;48.124;11.578;2022-09-23T15:13:23;20.40;99.90
983;DHT22;480;48.124;11.578;2022-09-23T15:15:53;20.20;99.90
983;DHT22;480;48.124;11.578;2022-09-23T15:18:22;20.20;99.90
983;DHT22;480;48.124;11.578;2022-09-23T15:20:51;20.20;99.90
983;DHT22;480;48.124;11.578;2022-09-23T15:23:34;20.00;99.90
983;DHT22;480;48.124;11.578;2022-09-23T15:26:07;20.00;99.90
983;DHT22;480;48.124;11.578;2022-09-23T15:28:35;19.90;99.90
983;DHT22;480;48.124;11.578;2022-09-23T15:31:02;19.90;99.90
983;DHT22;480;48.124;11.578;2022-09-23T15:33:33;20.00;99.90
983;DHT22;480;48.124;11.578;2022-09-23T15:36:01;19.90;99.90
983;DHT22;480;48.124;11.578;2022-09-23T15:38:28;19.70;99.90
983;DHT22;480;48.124;11.578;2022-09-23T15:40:55;19.50;99.90
983;DHT22;480;48.124;11.578;2022-09-23T15:43:24;19.40;99.90
983;DHT22;480;48.124;11.578;2022-09-23T15:45:53;19.40;99.90
983;DHT22;480;48.124;11.578;2022-09-23T15:48:22;19.30;99.90
983;DHT22;480;48.124;11.578;2022-09-23T15:50:50;19.10;99.90
983;DHT22;480;48.124;11.578;2022-09-23T15:53:20;19.10;99.90
983;DHT22;480;48.124;11.578;2022-09-23T15:55:48;19.00;99.90
983;DHT22;480;48.124;11.578;2022-09-23T15:58:16;18.90;99.90
983;DHT22;480;48.124;11.578;2022-09-23T16:00:44;18.90;99.90
983;DHT22;480;48.124;11.578;2022-09-23T16:03:13;18.80;99.90
983;DHT22;480;48.124;11.578;2022-09-23T16:05:42;18.70;99.90
983;DHT22;480;48.124;11.578;2022-09-23T16:08:11;18.80;99.90
983;DHT22;480;48.124;11.578;2022-09-23T16:10:39;18.70;99.90
983;DHT22;480;48.124;11.578;2022-09-23T16:13:10;18.30;99.90
983;DHT22;480;48.124;11.578;2022-09-23T16:15:37;18.30;99.90
983;DHT22;480;48.124;11.578;2022-09-23T16:18:06;18.20;99.90
983;DHT22;480;48.124;11.578;2022-09-23T16:20:35;18.20;99.90
983;DHT22;480;48.124;11.578;2022-09-23T16:23:04;18.20;99.90
983;DHT22;480;48.124;11.578;2022-09-23T16:25:33;18.00;99.90
983;DHT22;480;48.124;11.578;2022-09-23T16:28:02;17.90;99.90
983;DHT22;480;48.124;11.578;2022-09-23T16:30:31;17.80;99.90
983;DHT22;480;48.124;11.578;2022-09-23T16:32:58;17.70;99.90
983;DHT22;480;48.124;11.578;2022-09-23T16:35:29;17.60;99.90
983;DHT22;480;48.124;11.578;2022-09-23T16:37:57;17.30;99.90
983;DHT22;480;48.124;11.578;2022-09-23T16:40:24;17.20;99.90
983;DHT22;480;48.124;11.578;2022-09-23T16:42:51;17.20;99.90
983;DHT22;480;48.124;11.578;2022-09-23T16:45:20;17.20;99.90
983;DHT22;480;48.124;11.578;2022-09-23T16:47:49;17.30;99.90
983;DHT22;480;48.124;11.578;2022-09-23T16:50:18;17.10;99.90
983;DHT22;480;48.124;11.578;2022-09-23T16:52:50;17.10;99.90
983;DHT22;480;48.124;11.578;2022-09-23T16:55:19;16.80;99.90
983;DHT22;480;48.124;11.578;2022-09-23T16:57:46;16.80;99.90
983;DHT22;480;48.124;11.578;2022-09-23T17:00:14;16.80;99.90
983;DHT22;480;48.124;11.578;2022-09-23T17:02:59;16.60;99.90
983;DHT22;480;48.124;11.578;2022-09-23T17:05:44;16.50;99.90
983;DHT22;480;48.124;11.578;2022-09-23T17:08:13;16.40;99.90
983;DHT22;480;48.124;11.578;2022-09-23T17:10:42;16.40;99.90
983;DHT22;480;48.124;11.578;2022-09-23T17:13:11;16.40;99.90
983;DHT22;480;48.124;11.578;2022-09-23T17:15:39;16.50;99.90